createdAt,value
2018-10-19T00:02:02.346Z,11.20
2018-10-19T00:04:32.034Z,11.00
2018-10-19T00:07:01.192Z,10.90
2018-10-19T00:09:30.771Z,11.00
2018-10-19T00:12:00.054Z,11.00
2018-10-19T00:14:29.409Z,10.80
2018-10-19T00:16:59.242Z,10.70
2018-10-19T00:19:29.170Z,10.50
2018-10-19T00:21:58.478Z,10.60
2018-10-19T00:24:27.603Z,10.70
2018-10-19T00:26:57.036Z,10.60
2018-10-19T00:29:26.262Z,10.70
2018-10-19T00:31:55.388Z,10.50
2018-10-19T00:34:24.566Z,10.40
2018-10-19T00:36:54.399Z,10.40
2018-10-19T00:39:23.503Z,10.30
2018-10-19T00:41:52.667Z,10.30
2018-10-19T00:44:21.800Z,10.10
2018-10-19T00:46:51.598Z,10.00
2018-10-19T00:49:20.727Z,10.00
2018-10-19T00:51:49.855Z,10.00
2018-10-19T00:54:19.029Z,10.00
2018-10-19T00:56:48.182Z,9.90
2018-10-19T00:59:17.875Z,10.00
2018-10-19T01:01:47.027Z,9.90
2018-10-19T01:04:16.162Z,9.80
2018-10-19T01:06:45.397Z,9.80
2018-10-19T01:09:15.344Z,9.80
2018-10-19T01:11:44.391Z,10.10
2018-10-19T01:14:13.534Z,10.10
2018-10-19T01:16:43.414Z,10.00
2018-10-19T01:19:13.346Z,9.90
2018-10-19T01:21:43.291Z,10.00
2018-10-19T01:24:13.681Z,9.90
2018-10-19T01:26:43.042Z,10.00
2018-10-19T01:29:12.378Z,9.90
2018-10-19T01:31:41.799Z,9.90
2018-10-19T01:34:11.074Z,9.80
2018-10-19T01:36:42.278Z,9.80
2018-10-19T01:39:12.239Z,9.70
2018-10-19T01:41:41.962Z,9.60
2018-10-19T01:44:11.890Z,9.60
2018-10-19T01:46:47.343Z,9.50
2018-10-19T01:49:16.794Z,9.50
2018-10-19T01:51:45.978Z,9.60
2018-10-19T01:54:15.116Z,9.60
2018-10-19T01:56:44.546Z,9.70
2018-10-19T01:59:13.728Z,9.60
2018-10-19T02:01:42.818Z,9.50
2018-10-19T02:04:12.653Z,9.40
2018-10-19T02:06:41.870Z,9.20
2018-10-19T02:09:11.122Z,9.10
2018-10-19T02:11:40.729Z,9.10
2018-10-19T02:14:09.903Z,9.00
2018-10-19T02:16:39.418Z,9.00
2018-10-19T02:19:08.877Z,9.00
2018-10-19T02:21:39.034Z,9.10
2018-10-19T02:24:08.272Z,9.00
2018-10-19T02:26:37.519Z,8.90
2018-10-19T02:29:07.958Z,8.80
2018-10-19T02:31:37.533Z,8.70
2018-10-19T02:34:07.718Z,8.60
2018-10-19T02:36:36.858Z,8.60
2018-10-19T02:39:08.431Z,8.40
2018-10-19T02:41:37.519Z,8.50
2018-10-19T02:44:06.685Z,8.40
2018-10-19T02:46:35.814Z,8.30
2018-10-19T02:49:05.364Z,8.30
2018-10-19T02:51:34.822Z,8.30
2018-10-19T02:54:04.390Z,8.40
2018-10-19T02:56:33.551Z,8.40
2018-10-19T02:59:02.819Z,8.30
2018-10-19T03:01:31.895Z,8.30
2018-10-19T03:04:01.120Z,8.20
2018-10-19T03:06:31.480Z,8.10
2018-10-19T03:09:00.657Z,8.10
2018-10-19T03:11:30.208Z,8.10
2018-10-19T03:13:59.348Z,8.00
2018-10-19T03:16:28.559Z,8.00
2018-10-19T03:18:58.350Z,8.10
2018-10-19T03:21:27.638Z,8.20
2018-10-19T03:23:56.878Z,8.30
2018-10-19T03:26:26.796Z,8.20
2018-10-19T03:28:56.382Z,8.20
2018-10-19T03:31:25.670Z,8.30
2018-10-19T03:33:54.937Z,8.30
2018-10-19T03:36:24.174Z,8.30
2018-10-19T03:38:53.328Z,8.20
2018-10-19T03:41:22.496Z,8.00
2018-10-19T03:43:51.671Z,8.00
2018-10-19T03:46:21.124Z,8.00
2018-10-19T03:48:50.262Z,7.90
2018-10-19T03:51:19.499Z,7.80
2018-10-19T03:53:48.591Z,7.50
2018-10-19T03:56:17.741Z,7.60
2018-10-19T03:58:46.902Z,7.60
2018-10-19T04:01:16.703Z,7.60
2018-10-19T04:03:45.928Z,7.60
2018-10-19T04:06:15.074Z,7.60
2018-10-19T04:08:44.306Z,7.50
2018-10-19T04:11:13.612Z,7.50
2018-10-19T04:13:42.790Z,7.60
2018-10-19T04:16:11.926Z,7.50
2018-10-19T04:18:41.095Z,7.40
2018-10-19T04:21:10.416Z,7.40
2018-10-19T04:23:39.433Z,7.30
2018-10-19T04:26:08.639Z,7.30
2018-10-19T04:28:37.829Z,7.20
2018-10-19T04:31:07.022Z,7.00
2018-10-19T04:33:36.254Z,6.90
2018-10-19T04:36:05.752Z,6.80
2018-10-19T04:38:35.387Z,6.80
2018-10-19T04:41:04.603Z,6.90
2018-10-19T04:43:33.769Z,7.00
2018-10-19T04:46:02.928Z,6.90
2018-10-19T04:48:32.113Z,7.00
2018-10-19T04:51:01.386Z,7.00
2018-10-19T04:53:30.503Z,7.00
2018-10-19T04:55:59.613Z,7.00
2018-10-19T04:58:28.994Z,7.00
2018-10-19T05:00:58.153Z,7.00
2018-10-19T05:03:27.307Z,7.10
2018-10-19T05:05:57.190Z,7.00
2018-10-19T05:08:26.345Z,6.90
2018-10-19T05:10:56.087Z,7.00
2018-10-19T05:13:25.234Z,6.90
2018-10-19T05:15:54.423Z,7.00
2018-10-19T05:18:24.258Z,7.10
2018-10-19T05:20:53.678Z,7.10
2018-10-19T05:23:22.822Z,7.10
2018-10-19T05:25:51.778Z,7.10
2018-10-19T05:28:20.995Z,7.00
2018-10-19T05:30:50.224Z,7.30
2018-10-19T05:33:19.373Z,7.70
2018-10-19T05:35:48.530Z,7.50
2018-10-19T05:38:17.742Z,7.60
2018-10-19T05:40:46.912Z,7.50
2018-10-19T05:43:17.726Z,7.50
2018-10-19T05:45:47.037Z,7.60
2018-10-19T05:48:16.571Z,7.30
2018-10-19T05:50:45.741Z,7.10
2018-10-19T05:53:14.971Z,7.00
2018-10-19T05:55:44.054Z,6.90
2018-10-19T05:58:13.214Z,6.80
2018-10-19T06:00:42.353Z,6.80
2018-10-19T06:03:12.253Z,6.80
2018-10-19T06:05:41.450Z,6.70
2018-10-19T06:08:12.092Z,6.70
2018-10-19T06:10:41.209Z,6.70
2018-10-19T06:13:10.363Z,6.70
2018-10-19T06:15:39.516Z,6.80
2018-10-19T06:18:08.645Z,6.70
2018-10-19T06:20:37.790Z,6.70
2018-10-19T06:23:07.174Z,6.70
2018-10-19T06:25:36.015Z,6.80
2018-10-19T06:28:05.171Z,7.00
2018-10-19T06:30:34.402Z,7.00
2018-10-19T06:33:03.566Z,7.10
2018-10-19T06:35:32.718Z,7.20
2018-10-19T06:38:01.873Z,7.40
2018-10-19T06:40:31.024Z,7.60
2018-10-19T06:43:00.177Z,7.80
2018-10-19T06:45:29.356Z,8.00
2018-10-19T06:47:58.530Z,8.20
2018-10-19T06:50:27.762Z,8.40
2018-10-19T06:52:57.016Z,8.50
2018-10-19T06:55:26.222Z,8.70
2018-10-19T06:57:55.496Z,8.80
2018-10-19T07:00:24.653Z,8.90
2018-10-19T07:02:53.798Z,9.10
2018-10-19T07:05:22.921Z,9.30
2018-10-19T07:07:52.099Z,9.40
2018-10-19T07:10:21.246Z,9.60
2018-10-19T07:12:50.374Z,9.80
2018-10-19T07:15:19.528Z,10.20
2018-10-19T07:17:48.682Z,10.40
2018-10-19T07:20:18.202Z,10.50
2018-10-19T07:22:47.670Z,10.80
2018-10-19T07:25:16.374Z,11.10
2018-10-19T07:27:45.608Z,11.60
2018-10-19T07:30:14.762Z,11.70
2018-10-19T07:32:44.277Z,12.00
2018-10-19T07:35:13.501Z,12.20
2018-10-19T07:37:42.614Z,12.00
2018-10-19T07:40:11.754Z,11.60
2018-10-19T07:42:40.954Z,11.40
2018-10-19T07:45:10.151Z,11.10
2018-10-19T07:47:40.098Z,10.80
2018-10-19T07:50:09.765Z,10.70
2018-10-19T07:52:39.687Z,10.90
2018-10-19T07:55:10.791Z,11.50
2018-10-19T07:57:39.988Z,11.80
2018-10-19T08:00:10.114Z,12.70
2018-10-19T08:02:39.498Z,13.50
2018-10-19T08:05:09.670Z,14.10
2018-10-19T08:07:38.737Z,14.70
2018-10-19T08:10:10.282Z,15.00
2018-10-19T08:12:39.645Z,15.10
2018-10-19T08:15:09.701Z,15.80
2018-10-19T08:17:38.435Z,16.50
2018-10-19T08:20:08.434Z,16.70
2018-10-19T08:22:37.712Z,17.00
2018-10-19T08:25:06.985Z,17.20
2018-10-19T08:27:36.293Z,16.60
2018-10-19T08:30:05.511Z,15.90
2018-10-19T08:32:34.573Z,15.50
2018-10-19T08:35:03.765Z,14.80
2018-10-19T08:37:32.697Z,14.40
2018-10-19T08:40:01.799Z,14.00
2018-10-19T08:42:31.219Z,14.00
2018-10-19T08:45:00.019Z,14.10
2018-10-19T08:47:29.147Z,14.30
2018-10-19T08:49:58.219Z,14.50
2018-10-19T08:52:27.369Z,14.50
2018-10-19T08:54:56.531Z,14.90
2018-10-19T08:57:25.631Z,15.80
2018-10-19T08:59:54.996Z,16.90
2018-10-19T09:02:23.824Z,18.30
2018-10-19T09:04:52.958Z,19.10
2018-10-19T09:07:22.082Z,20.00
2018-10-19T09:09:51.219Z,20.70
2018-10-19T09:12:20.446Z,20.50
2018-10-19T09:14:54.638Z,21.00
2018-10-19T09:17:23.861Z,20.70
2018-10-19T09:19:53.319Z,21.00
2018-10-19T09:22:22.545Z,21.00
2018-10-19T09:24:52.469Z,21.10
2018-10-19T09:27:21.682Z,22.20
2018-10-19T09:29:50.822Z,22.30
2018-10-19T09:32:20.001Z,21.70
2018-10-19T09:34:49.117Z,20.30
2018-10-19T09:37:18.241Z,20.40
2018-10-19T09:39:47.380Z,21.10
2018-10-19T09:42:17.230Z,21.60
2018-10-19T09:44:46.813Z,21.70
2018-10-19T09:47:16.072Z,22.20
2018-10-19T09:49:45.250Z,22.40
2018-10-19T09:52:14.441Z,22.20
2018-10-19T09:54:43.601Z,22.80
2018-10-19T09:57:13.376Z,23.30
2018-10-19T09:59:42.438Z,21.40
2018-10-19T10:02:11.671Z,21.80
2018-10-19T10:04:40.518Z,21.10
2018-10-19T10:07:09.745Z,20.20
2018-10-19T10:09:38.860Z,19.90
2018-10-19T10:12:08.097Z,20.40
2018-10-19T10:14:37.774Z,20.80
2018-10-19T10:17:06.959Z,21.10
2018-10-19T10:19:36.134Z,21.60
2018-10-19T10:22:06.682Z,22.80
2018-10-19T10:24:36.048Z,23.40
2018-10-19T10:27:05.498Z,23.00
2018-10-19T10:29:34.774Z,23.30
2018-10-19T10:32:04.046Z,23.70
2018-10-19T10:34:33.143Z,20.80
2018-10-19T10:37:02.337Z,19.30
2018-10-19T10:39:31.559Z,19.30
2018-10-19T10:42:00.724Z,19.00
2018-10-19T10:44:29.898Z,19.50
2018-10-19T10:46:59.098Z,19.70
2018-10-19T10:49:28.252Z,19.60
2018-10-19T10:51:57.487Z,19.20
2018-10-19T10:54:26.610Z,19.00
2018-10-19T10:56:56.037Z,19.20
2018-10-19T10:59:25.245Z,19.00
2018-10-19T11:01:54.654Z,18.90
2018-10-19T11:04:23.991Z,18.70
2018-10-19T11:06:53.078Z,18.70
2018-10-19T11:09:22.158Z,18.50
2018-10-19T11:11:51.341Z,18.70
2018-10-19T11:14:20.525Z,18.80
2018-10-19T11:16:49.730Z,18.80
2018-10-19T11:19:19.488Z,18.90
2018-10-19T11:21:49.174Z,18.70
2018-10-19T11:24:18.310Z,18.90
2018-10-19T11:26:47.428Z,18.70
2018-10-19T11:29:17.121Z,18.30
2018-10-19T11:31:47.506Z,17.90
2018-10-19T11:34:16.746Z,18.10
2018-10-19T11:36:45.834Z,18.20
2018-10-19T11:39:15.010Z,17.90
2018-10-19T11:41:44.233Z,17.90
2018-10-19T11:44:14.009Z,18.10
2018-10-19T11:46:43.198Z,18.20
2018-10-19T11:49:12.412Z,17.70
2018-10-19T11:51:41.645Z,18.00
2018-10-19T11:54:10.698Z,18.10
2018-10-19T11:56:39.914Z,18.00
2018-10-19T11:59:09.082Z,17.60
2018-10-19T12:01:38.210Z,17.70
2018-10-19T12:04:07.180Z,18.10
2018-10-19T12:06:36.441Z,18.50
2018-10-19T12:09:08.738Z,18.80
2018-10-19T12:11:37.966Z,18.90
2018-10-19T12:14:07.233Z,18.80
2018-10-19T12:16:36.488Z,18.10
2018-10-19T12:19:05.624Z,18.40
2018-10-19T12:21:34.734Z,18.20
2018-10-19T12:24:03.946Z,18.40
2018-10-19T12:26:32.774Z,18.50
2018-10-19T12:29:01.985Z,18.40
2018-10-19T12:31:31.129Z,18.40
2018-10-19T12:34:00.282Z,18.60
2018-10-19T12:36:29.502Z,19.00
2018-10-19T12:38:58.689Z,19.30
2018-10-19T12:41:27.782Z,19.10
2018-10-19T12:43:56.954Z,19.00
2018-10-19T12:46:50.314Z,19.20
2018-10-19T12:49:23.656Z,19.40
2018-10-19T12:51:52.838Z,19.10
2018-10-19T12:54:22.385Z,19.50
2018-10-19T12:56:51.443Z,19.70
2018-10-19T12:59:20.385Z,19.60
2018-10-19T13:01:49.172Z,19.60
2018-10-19T13:04:18.314Z,19.40
2018-10-19T13:06:47.626Z,19.30
2018-10-19T13:09:17.016Z,18.90
2018-10-19T13:11:46.206Z,19.10
2018-10-19T13:14:15.545Z,19.50
2018-10-19T13:16:44.791Z,19.60
2018-10-19T13:19:14.072Z,19.80
2018-10-19T13:21:43.238Z,19.60
2018-10-19T13:24:12.499Z,19.70
2018-10-19T13:26:41.608Z,19.20
2018-10-19T13:29:10.742Z,18.90
2018-10-19T13:31:40.302Z,18.90
2018-10-19T13:34:09.492Z,19.20
2018-10-19T13:36:38.587Z,19.00
2018-10-19T13:39:12.720Z,18.90
2018-10-19T13:41:42.231Z,19.50
2018-10-19T13:44:11.462Z,19.80
2018-10-19T13:46:40.618Z,19.80
2018-10-19T13:49:09.730Z,19.70
2018-10-19T13:51:38.886Z,20.20
2018-10-19T13:54:08.013Z,20.30
2018-10-19T13:56:37.166Z,20.10
2018-10-19T13:59:06.360Z,20.00
2018-10-19T14:01:36.090Z,19.90
2018-10-19T14:04:05.052Z,19.80
2018-10-19T14:06:34.230Z,19.70
2018-10-19T14:09:04.063Z,19.60
2018-10-19T14:11:33.190Z,19.70
2018-10-19T14:14:03.565Z,19.80
2018-10-19T14:16:32.746Z,20.10
2018-10-19T14:19:01.897Z,19.60
2018-10-19T14:21:31.053Z,19.60
2018-10-19T14:24:00.223Z,20.00
2018-10-19T14:26:29.436Z,20.10
2018-10-19T14:28:58.658Z,20.20
2018-10-19T14:31:28.206Z,20.20
2018-10-19T14:33:57.682Z,20.00
2018-10-19T14:36:27.209Z,20.10
2018-10-19T14:38:56.769Z,19.90
2018-10-19T14:41:27.002Z,19.70
2018-10-19T14:43:55.926Z,19.60
2018-10-19T14:46:25.550Z,19.70
2018-10-19T14:48:54.760Z,19.60
2018-10-19T14:51:24.670Z,19.70
2018-10-19T14:53:54.315Z,19.60
2018-10-19T14:56:24.570Z,19.60
2018-10-19T14:58:55.439Z,19.40
2018-10-19T15:01:26.321Z,19.40
2018-10-19T15:03:56.066Z,19.00
2018-10-19T15:06:25.184Z,18.60
2018-10-19T15:08:54.684Z,18.40
2018-10-19T15:11:25.047Z,18.30
2018-10-19T15:13:54.262Z,18.10
2018-10-19T15:16:23.357Z,17.90
2018-10-19T15:18:52.593Z,17.90
2018-10-19T15:21:21.801Z,17.90
2018-10-19T15:23:50.942Z,17.90
2018-10-19T15:26:20.693Z,17.80
2018-10-19T15:28:51.248Z,17.80
2018-10-19T15:31:20.397Z,17.90
2018-10-19T15:33:49.741Z,17.70
2018-10-19T15:36:19.750Z,17.60
2018-10-19T15:38:49.082Z,17.40
2018-10-19T15:41:18.254Z,17.30
2018-10-19T15:43:48.022Z,17.20
2018-10-19T15:46:17.150Z,17.10
2018-10-19T15:48:46.335Z,17.00
2018-10-19T15:51:15.971Z,17.00
2018-10-19T15:53:45.974Z,16.90
2018-10-19T15:56:15.285Z,16.70
2018-10-19T15:58:45.034Z,16.60
2018-10-19T16:01:14.228Z,16.50
2018-10-19T16:03:43.997Z,16.50
2018-10-19T16:06:13.341Z,16.30
2018-10-19T16:08:43.276Z,16.30
2018-10-19T16:11:12.677Z,16.10
2018-10-19T16:13:42.147Z,16.10
2018-10-19T16:16:11.715Z,16.00
2018-10-19T16:18:41.206Z,15.80
2018-10-19T16:21:10.777Z,15.70
2018-10-19T16:23:40.151Z,15.40
2018-10-19T16:26:10.010Z,15.30
2018-10-19T16:28:40.368Z,15.20
2018-10-19T16:31:09.879Z,15.10
2018-10-19T16:33:39.038Z,15.10
2018-10-19T16:36:08.794Z,14.80
2018-10-19T16:38:38.990Z,14.60
2018-10-19T16:41:08.303Z,14.40
2018-10-19T16:43:38.004Z,14.40
2018-10-19T16:46:07.784Z,14.30
2018-10-19T16:48:37.654Z,14.40
2018-10-19T16:51:07.065Z,14.60
2018-10-19T16:53:36.599Z,14.60
2018-10-19T16:56:06.073Z,14.30
2018-10-19T16:58:35.550Z,14.10
2018-10-19T17:01:05.130Z,14.00
2018-10-19T17:03:34.314Z,14.00
2018-10-19T17:06:03.893Z,13.80
2018-10-19T17:08:33.429Z,13.80
2018-10-19T17:11:02.255Z,13.90
2018-10-19T17:13:31.398Z,14.00
2018-10-19T17:16:00.538Z,14.00
2018-10-19T17:18:31.000Z,14.00
2018-10-19T17:21:00.860Z,13.80
2018-10-19T17:23:29.930Z,13.50
2018-10-19T17:25:59.094Z,13.50
2018-10-19T17:28:28.290Z,13.50
2018-10-19T17:30:57.674Z,13.40
2018-10-19T17:33:27.111Z,13.60
2018-10-19T17:35:56.777Z,13.60
2018-10-19T17:38:25.906Z,13.50
2018-10-19T17:40:55.300Z,13.50
2018-10-19T17:43:24.175Z,13.30
2018-10-19T17:45:53.188Z,13.30
2018-10-19T17:48:22.410Z,13.00
2018-10-19T17:50:52.952Z,12.90
2018-10-19T17:53:22.298Z,13.20
2018-10-19T17:55:51.674Z,13.10
2018-10-19T17:58:20.860Z,12.90
2018-10-19T18:00:50.242Z,12.90
2018-10-19T18:03:19.446Z,12.70
2018-10-19T18:05:48.786Z,12.50
2018-10-19T18:08:17.987Z,12.30
2018-10-19T18:10:47.077Z,12.20
2018-10-19T18:13:17.297Z,12.10
2018-10-19T18:15:46.583Z,12.10
2018-10-19T18:18:15.794Z,12.10
2018-10-19T18:20:45.762Z,12.10
2018-10-19T18:23:15.379Z,12.00
2018-10-19T18:25:44.714Z,12.00
2018-10-19T18:28:14.466Z,12.00
2018-10-19T18:30:44.097Z,12.10
2018-10-19T18:33:14.091Z,11.90
2018-10-19T18:35:42.944Z,11.80
2018-10-19T18:38:12.181Z,11.70
2018-10-19T18:40:41.361Z,11.50
2018-10-19T18:43:10.494Z,11.40
2018-10-19T18:45:39.851Z,11.50
2018-10-19T18:48:09.019Z,11.50
2018-10-19T18:50:38.187Z,11.40
2018-10-19T18:53:08.151Z,11.50
2018-10-19T18:55:37.993Z,11.30
2018-10-19T18:58:07.665Z,11.40
2018-10-19T19:00:36.965Z,11.30
2018-10-19T19:03:06.266Z,11.50
2018-10-19T19:05:36.051Z,11.40
2018-10-19T19:08:06.013Z,11.40
2018-10-19T19:10:35.308Z,11.40
2018-10-19T19:13:10.225Z,11.40
2018-10-19T19:15:40.322Z,11.30
2018-10-19T19:18:09.557Z,11.20
2018-10-19T19:20:38.721Z,11.20
2018-10-19T19:23:08.672Z,11.10
2018-10-19T19:25:43.063Z,11.10
2018-10-19T19:28:12.449Z,11.10
2018-10-19T19:30:42.326Z,11.00
2018-10-19T19:33:17.633Z,10.80
2018-10-19T19:35:46.859Z,10.80
2018-10-19T19:38:16.383Z,10.60
2018-10-19T19:40:51.610Z,10.80
2018-10-19T19:43:20.808Z,11.10
2018-10-19T19:45:49.990Z,10.90
2018-10-19T19:48:24.344Z,10.80
2018-10-19T19:50:53.474Z,10.70
2018-10-19T19:53:22.751Z,10.50
2018-10-19T19:55:52.520Z,10.50
2018-10-19T19:58:22.164Z,10.70
2018-10-19T20:00:51.602Z,10.60
2018-10-19T20:03:21.670Z,10.40
2018-10-19T20:05:51.265Z,10.40
2018-10-19T20:08:20.422Z,10.50
2018-10-19T20:10:49.866Z,10.50
2018-10-19T20:13:19.530Z,10.40
2018-10-19T20:15:48.812Z,10.20
2018-10-19T20:18:18.995Z,10.10
2018-10-19T20:20:48.779Z,10.00
2018-10-19T20:23:18.173Z,10.00
2018-10-19T20:25:47.467Z,10.00
2018-10-19T20:28:16.959Z,10.00
2018-10-19T20:30:47.021Z,9.90
2018-10-19T20:33:16.328Z,9.80
2018-10-19T20:35:45.810Z,9.60
2018-10-19T20:38:15.191Z,9.90
2018-10-19T20:40:44.589Z,10.20
2018-10-19T20:43:13.803Z,10.10
2018-10-19T20:45:43.031Z,10.00
2018-10-19T20:48:12.902Z,9.90
2018-10-19T20:50:42.866Z,9.80
2018-10-19T20:53:12.227Z,9.70
2018-10-19T20:55:42.052Z,9.70
2018-10-19T20:58:11.362Z,9.70
2018-10-19T21:00:40.548Z,9.40
2018-10-19T21:03:10.986Z,9.30
2018-10-19T21:05:40.827Z,9.30
2018-10-19T21:08:10.204Z,9.40
2018-10-19T21:10:39.543Z,9.50
2018-10-19T21:13:09.238Z,9.50
2018-10-19T21:15:38.606Z,9.40
2018-10-19T21:18:08.349Z,9.20
2018-10-19T21:20:37.563Z,9.20
2018-10-19T21:23:07.383Z,9.20
2018-10-19T21:25:36.761Z,9.30
2018-10-19T21:28:06.844Z,9.30
2018-10-19T21:30:37.038Z,9.10
2018-10-19T21:33:06.063Z,9.00
2018-10-19T21:35:36.498Z,8.90
2018-10-19T21:38:05.663Z,8.90
2018-10-19T21:40:34.846Z,8.90
2018-10-19T21:43:10.660Z,8.80
2018-10-19T21:45:40.570Z,8.80
2018-10-19T21:48:10.036Z,8.90
2018-10-19T21:50:39.213Z,8.90
2018-10-19T21:53:08.408Z,8.90
2018-10-19T21:55:37.539Z,8.80
2018-10-19T21:58:06.768Z,8.80
2018-10-19T22:00:36.011Z,8.70
2018-10-19T22:03:05.386Z,8.70
2018-10-19T22:05:34.614Z,8.90
2018-10-19T22:08:03.840Z,8.90
2018-10-19T22:10:33.100Z,9.00
2018-10-19T22:13:02.291Z,9.10
2018-10-19T22:15:31.394Z,9.00
2018-10-19T22:18:00.545Z,8.90
2018-10-19T22:20:29.718Z,8.90
2018-10-19T22:22:59.530Z,8.70
2018-10-19T22:25:28.916Z,8.50
2018-10-19T22:27:58.162Z,8.40
2018-10-19T22:30:27.351Z,8.30
2018-10-19T22:32:56.673Z,8.30
2018-10-19T22:35:26.051Z,8.30
2018-10-19T22:37:54.816Z,8.40
2018-10-19T22:40:24.037Z,8.50
2018-10-19T22:42:52.893Z,8.60
2018-10-19T22:45:22.070Z,8.70
2018-10-19T22:47:51.202Z,8.70
2018-10-19T22:50:20.355Z,8.60
2018-10-19T22:52:49.503Z,8.60
2018-10-19T22:55:19.394Z,8.40
2018-10-19T22:57:48.902Z,8.20
2018-10-19T23:00:18.036Z,8.10
2018-10-19T23:02:47.179Z,8.20
2018-10-19T23:05:16.537Z,8.30
2018-10-19T23:07:45.601Z,8.20
2018-10-19T23:10:14.966Z,8.10
2018-10-19T23:12:43.758Z,8.10
2018-10-19T23:15:12.878Z,8.20
2018-10-19T23:17:42.003Z,8.20
2018-10-19T23:20:11.116Z,8.00
2018-10-19T23:22:40.231Z,8.20
2018-10-19T23:25:09.446Z,8.20
2018-10-19T23:27:39.402Z,8.20
2018-10-19T23:30:08.682Z,8.30
2018-10-19T23:32:37.598Z,8.30
2018-10-19T23:35:08.176Z,8.10
2018-10-19T23:37:37.341Z,7.90
2018-10-19T23:40:09.674Z,7.90
2018-10-19T23:42:38.882Z,8.10
2018-10-19T23:45:09.021Z,8.20
2018-10-19T23:47:38.666Z,8.30
2018-10-19T23:50:08.494Z,8.30
2018-10-19T23:52:38.394Z,8.10
2018-10-19T23:55:07.678Z,8.10
2018-10-19T23:57:37.846Z,8.00
